• Join FlightAware (Why Join?)
  • Login
  • US Flag 
08:56PM EDT


 

Airport Tracker/Info


-or-


 

Live Flight TrackerFlight Track Log ✈ TAM3401 ✈ 29-Jun-2013 ✈ SBBE / BEL - SBBR / BSB

Flight Track Log - Related Links

Times and Time Zones

All times are in EDT time to prevent confusion due to time zone crossing. See the TAM3401 flight status page for this flight to view local times or setup timezone preferences in your user account.

Time Position Orientation Groundspeed Altitude Reporting Facility
EDT Latitude Longitude Course Direction KTS MPH feet Rate Location/Type
05:54PM -10.7424 -48.1173 178° South  Level Estimated
05:55PM -10.8538 -48.1129 178° South  Level Estimated
05:56PM -10.9653 -48.1086 178° South  Level Estimated
05:57PM -11.0767 -48.1042 178° South  Level Estimated
05:58PM -11.1882 -48.0998 178° South  Level Estimated
05:59PM -11.2997 -48.0954 178° South  Level Estimated
06:00PM -11.4111 -48.0910 178° South  Level Estimated
06:01PM -11.5226 -48.0867 178° South  Level Estimated
06:02PM -11.6341 -48.0823 178° South  Level Estimated
06:03PM -11.7455 -48.0779 178° South  Level Estimated
06:04PM -11.8570 -48.0735 178° South  Level Estimated
06:05PM -11.9684 -48.0691 178° South  Level Estimated
06:06PM -12.0799 -48.0647 178° South  Level Estimated
06:07PM -12.1913 -48.0602 178° South  Level Estimated
06:08PM -12.3028 -48.0558 178° South  Level Estimated
06:09PM -12.4143 -48.0514 178° South  Level Estimated
06:10PM -12.5257 -48.0470 178° South  Level Estimated
06:11PM -12.6372 -48.0426 178° South  Level Estimated
06:12PM -12.7486 -48.0381 178° South  Level Estimated
06:13PM -12.8601 -48.0337 178° South  Level Estimated
06:14PM -12.9716 -48.0293 178° South  Level Estimated
06:15PM -13.0830 -48.0248 178° South  Level Estimated
06:16PM -13.1945 -48.0204 178° South  Level Estimated
06:17PM -13.3060 -48.0159 178° South  Level Estimated
06:18PM -13.4174 -48.0115 178° South  Level Estimated
06:19PM -13.5289 -48.0070 178° South  Level Estimated
06:20PM -13.6403 -48.0026 178° South  Level Estimated
06:21PM -13.7518 -47.9981 178° South  Level Estimated
06:22PM -13.8632 -47.9936 178° South  Level Estimated
06:23PM -13.9747 -47.9892 178° South  Level Estimated
06:24PM -14.0862 -47.9847 178° South  Level Estimated
06:25PM -14.1976 -47.9802 178° South  Level Estimated
06:26PM -14.3091 -47.9757 178° South  Level Estimated
06:27PM -14.4206 -47.9712 178° South  Level Estimated
06:28PM -14.5320 -47.9667 178° South  Level Estimated
06:29PM -14.6435 -47.9622 178° South  Level Estimated
06:30PM -14.7549 -47.9577 178° South  Level Estimated
06:31PM -14.8664 -47.9532 178° South  Level Estimated
06:32PM -14.9778 -47.9487 178° South  Level Estimated
06:33PM -15.0893 -47.9441 178° South  Level Estimated
06:34PM -15.2008 -47.9396 178° South  Level Estimated
06:35PM -15.3122 -47.9351 178° South  Level Estimated
06:36PM -15.4237 -47.9306 178° South  Level Estimated
06:37PM -15.5351 -47.9260 178° South  Level Estimated
06:38PM -15.6466 -47.9215 178° South  Level Estimated
06:39PM -15.7581 -47.9169 178° South  Level Estimated
06:40PM -15.8626 -47.9127 178° South  Level Estimated
06:41PM -15.8626 -47.9127 128° Southeast  Level Estimated
06:42PM -15.8626 -47.9127 128° Southeast  Level Estimated
06:43PM -15.8626 -47.9127 128° Southeast  Level Estimated
06:44PM -15.8626 -47.9127 128° Southeast  Level Estimated
06:45PM -15.8626 -47.9127 128° Southeast  Level Estimated
06:46PM -15.8626 -47.9127 128° Southeast  Level Estimated
06:47PM -15.8626 -47.9127 128° Southeast  Level Estimated
06:48PM -15.8626 -47.9127 128° Southeast  Level Estimated
06:49PM -15.8626 -47.9127 128° Southeast  Level Estimated
06:50PM -15.8626 -47.9127 128° Southeast  Level Estimated
06:51PM -15.8626 -47.9127 128° Southeast  Level Estimated
06:52PM -15.8626 -47.9127 128° Southeast  Level Estimated
06:53PM -15.8626 -47.9127 128° Southeast  Level Estimated
06:54PM -15.8626 -47.9127 128° Southeast  Level Estimated
06:55PM -15.8626 -47.9127 128° Southeast  Level Estimated
06:56PM -15.8626 -47.9127 128° Southeast  Level Estimated